createdAt,value
2022-12-08T00:01:35.236Z,6.55
2022-12-08T00:04:57.414Z,5.22
2022-12-08T00:08:17.898Z,3.47
2022-12-08T00:11:27.850Z,3.65
2022-12-08T00:14:30.834Z,3.42
2022-12-08T00:17:32.743Z,3.13
2022-12-08T00:20:34.889Z,3.05
2022-12-08T00:23:36.872Z,4.97
2022-12-08T00:26:38.831Z,4.00
2022-12-08T00:29:40.965Z,4.88
2022-12-08T00:32:42.879Z,4.18
2022-12-08T00:35:44.885Z,3.65
2022-12-08T00:38:48.543Z,4.75
2022-12-08T00:42:09.221Z,3.40
2022-12-08T00:45:11.756Z,3.40
2022-12-08T00:48:13.585Z,4.55
2022-12-08T00:51:15.762Z,4.22
2022-12-08T00:54:18.331Z,3.60
2022-12-08T00:57:20.109Z,3.45
2022-12-08T01:00:22.347Z,3.15
2022-12-08T01:03:25.661Z,2.33
2022-12-08T01:06:27.799Z,3.63
2022-12-08T01:09:29.576Z,3.80
2022-12-08T01:12:31.397Z,4.07
2022-12-08T01:15:33.635Z,7.85
2022-12-08T01:18:37.028Z,3.65
2022-12-08T01:21:41.700Z,3.20
2022-12-08T01:24:43.453Z,2.90
2022-12-08T01:27:45.357Z,3.08
2022-12-08T01:30:47.208Z,2.92
2022-12-08T01:33:49.854Z,5.60
2022-12-08T01:36:51.824Z,6.35
2022-12-08T01:39:53.630Z,3.55
2022-12-08T01:42:55.501Z,4.45
2022-12-08T01:45:57.804Z,3.80
2022-12-08T01:49:07.424Z,3.63
2022-12-08T01:52:25.176Z,2.40
2022-12-08T01:55:31.854Z,3.17
2022-12-08T01:58:40.493Z,2.65
2022-12-08T02:01:42.742Z,2.55
2022-12-08T02:04:45.151Z,3.42
2022-12-08T02:07:49.355Z,3.17
2022-12-08T02:10:55.420Z,3.70
2022-12-08T02:13:59.556Z,2.30
2022-12-08T02:17:43.501Z,2.42
2022-12-08T02:21:19.658Z,3.35
2022-12-08T02:24:37.647Z,3.70
2022-12-08T02:28:03.710Z,3.70
2022-12-08T02:31:15.832Z,3.80
2022-12-08T02:34:27.729Z,2.80
2022-12-08T02:37:36.941Z,2.95
2022-12-08T02:41:15.139Z,2.17
2022-12-08T02:44:32.967Z,2.42
2022-12-08T02:47:36.006Z,2.75
2022-12-08T02:50:38.569Z,3.80
2022-12-08T02:53:41.767Z,3.25
2022-12-08T02:56:56.848Z,2.95
2022-12-08T03:00:09.536Z,3.22
2022-12-08T03:03:24.401Z,3.83
2022-12-08T03:06:53.045Z,1.95
2022-12-08T03:10:01.536Z,2.95
2022-12-08T03:13:16.537Z,2.35
2022-12-08T03:16:27.041Z,3.15
2022-12-08T03:19:35.126Z,2.47
2022-12-08T03:22:39.337Z,3.22
2022-12-08T03:25:50.375Z,3.15
2022-12-08T03:28:53.280Z,2.70
2022-12-08T03:31:59.117Z,3.38
2022-12-08T03:35:08.795Z,2.05
2022-12-08T03:38:15.290Z,3.47
2022-12-08T03:41:23.221Z,2.65
2022-12-08T03:44:35.176Z,3.20
2022-12-08T03:47:38.525Z,3.28
2022-12-08T03:50:41.081Z,3.03
2022-12-08T03:53:46.909Z,2.42
2022-12-08T03:56:52.940Z,3.25
2022-12-08T03:59:55.649Z,3.70
2022-12-08T04:02:58.608Z,2.60
2022-12-08T04:06:01.230Z,3.03
2022-12-08T04:09:07.045Z,2.35
2022-12-08T04:12:10.072Z,2.88
2022-12-08T04:15:12.652Z,4.10
2022-12-08T04:18:16.029Z,3.17
2022-12-08T04:21:27.574Z,3.15
2022-12-08T04:24:30.288Z,3.92
2022-12-08T04:27:33.031Z,3.50
2022-12-08T04:30:35.947Z,3.08
2022-12-08T04:33:38.946Z,3.45
2022-12-08T04:36:41.463Z,2.85
2022-12-08T04:39:44.023Z,3.08
2022-12-08T04:42:49.850Z,3.47
2022-12-08T04:45:52.299Z,3.40
2022-12-08T04:48:58.257Z,3.15
2022-12-08T04:52:05.166Z,3.60
2022-12-08T04:55:08.010Z,4.43
2022-12-08T04:58:15.114Z,3.28
2022-12-08T05:01:17.708Z,3.13
2022-12-08T05:04:23.234Z,3.70
2022-12-08T05:07:25.906Z,3.47
2022-12-08T05:10:31.681Z,3.53
2022-12-08T05:13:34.181Z,3.85
2022-12-08T05:16:38.469Z,2.42
2022-12-08T05:19:41.020Z,2.83
2022-12-08T05:22:46.289Z,3.95
2022-12-08T05:25:51.147Z,3.63
2022-12-08T05:28:54.010Z,3.03
2022-12-08T05:31:56.809Z,2.58
2022-12-08T05:35:00.419Z,3.45
2022-12-08T05:38:05.778Z,3.63
2022-12-08T05:41:13.245Z,3.75
2022-12-08T05:44:15.688Z,4.07
2022-12-08T05:47:20.733Z,4.40
2022-12-08T05:50:23.231Z,4.13
2022-12-08T05:53:26.006Z,3.38
2022-12-08T05:56:28.415Z,3.45
2022-12-08T05:59:30.998Z,3.83
2022-12-08T06:02:34.740Z,3.17
2022-12-08T06:05:37.736Z,2.72
2022-12-08T06:08:40.806Z,3.63
2022-12-08T06:11:44.090Z,3.70
2022-12-08T06:14:46.954Z,4.30
2022-12-08T06:17:51.443Z,4.00
2022-12-08T06:21:05.463Z,2.63
2022-12-08T06:24:08.692Z,4.28
2022-12-08T06:27:11.020Z,3.22
2022-12-08T06:30:14.392Z,3.55
2022-12-08T06:33:17.003Z,4.15
2022-12-08T06:36:21.584Z,4.50
2022-12-08T06:39:24.127Z,6.95
2022-12-08T06:42:47.339Z,7.68
2022-12-08T06:45:50.060Z,9.63
2022-12-08T06:48:52.835Z,8.63
2022-12-08T06:51:55.530Z,9.50
2022-12-08T06:54:59.632Z,7.68
2022-12-08T06:58:02.667Z,7.25
2022-12-08T07:01:10.327Z,7.95
2022-12-08T07:04:13.409Z,7.93
2022-12-08T07:07:16.038Z,9.23
2022-12-08T07:10:18.494Z,8.57
2022-12-08T07:13:21.139Z,10.85
2022-12-08T07:16:24.035Z,10.75
2022-12-08T07:19:27.007Z,8.65
2022-12-08T07:22:31.975Z,8.63
2022-12-08T07:25:34.392Z,10.63
2022-12-08T07:28:38.375Z,9.43
2022-12-08T07:31:40.840Z,7.50
2022-12-08T07:34:45.453Z,7.45
2022-12-08T07:37:52.713Z,27.02
2022-12-08T07:40:56.213Z,16.02
2022-12-08T07:43:59.098Z,9.90
2022-12-08T07:47:02.697Z,6.25
2022-12-08T07:50:05.816Z,32.95
2022-12-08T07:53:10.101Z,20.48
2022-12-08T07:56:13.611Z,10.25
2022-12-08T07:59:16.007Z,41.22
2022-12-08T08:02:25.194Z,41.33
2022-12-08T08:05:27.761Z,25.30
2022-12-08T08:08:29.996Z,46.42
2022-12-08T08:11:34.482Z,19.70
2022-12-08T08:14:36.583Z,17.23
2022-12-08T08:17:40.473Z,7.57
2022-12-08T08:20:42.742Z,6.70
2022-12-08T08:23:45.053Z,6.97
2022-12-08T08:26:47.258Z,6.35
2022-12-08T08:29:49.501Z,5.22
2022-12-08T08:32:53.170Z,6.30
2022-12-08T08:35:55.807Z,5.18
2022-12-08T08:38:58.313Z,4.53
2022-12-08T08:42:00.365Z,5.05
2022-12-08T08:45:02.498Z,7.20
2022-12-08T08:48:05.311Z,6.35
2022-12-08T08:51:12.722Z,6.15
2022-12-08T08:57:23.660Z,6.65
2022-12-08T09:00:28.050Z,6.65
2022-12-08T09:03:30.806Z,8.15
2022-12-08T09:06:33.307Z,9.43
2022-12-08T09:09:35.656Z,6.50
2022-12-08T09:12:38.704Z,7.78
2022-12-08T09:15:40.946Z,7.20
2022-12-08T09:18:43.178Z,6.50
2022-12-08T09:21:45.873Z,5.45
2022-12-08T09:24:48.309Z,8.52
2022-12-08T09:27:52.924Z,5.72
2022-12-08T09:30:55.049Z,8.00
2022-12-08T09:33:57.858Z,8.65
2022-12-08T09:36:59.841Z,6.47
2022-12-08T09:40:02.467Z,4.75
2022-12-08T09:43:17.908Z,3.53
2022-12-08T09:46:20.609Z,3.85
2022-12-08T09:49:35.821Z,5.03
2022-12-08T09:53:11.652Z,7.32
2022-12-08T09:56:17.400Z,5.85
2022-12-08T09:59:34.744Z,7.28
2022-12-08T10:02:36.701Z,6.07
2022-12-08T10:05:43.545Z,5.85
2022-12-08T10:08:55.428Z,5.32
2022-12-08T10:11:57.249Z,5.63
2022-12-08T10:15:18.921Z,5.53
2022-12-08T10:18:27.035Z,6.10
2022-12-08T10:21:30.757Z,5.53
2022-12-08T10:24:37.813Z,7.05
2022-12-08T10:27:39.829Z,4.72
2022-12-08T10:30:42.623Z,5.05
2022-12-08T10:33:48.608Z,6.45
2022-12-08T10:36:57.834Z,5.45
2022-12-08T10:40:04.148Z,5.10
2022-12-08T10:43:08.469Z,6.00
2022-12-08T10:46:17.191Z,4.30
2022-12-08T10:49:27.662Z,5.40
2022-12-08T10:52:30.571Z,4.80
2022-12-08T10:55:47.470Z,4.93
2022-12-08T10:58:49.800Z,5.45
2022-12-08T11:01:54.086Z,4.63
2022-12-08T11:05:00.431Z,4.70
2022-12-08T11:08:04.016Z,5.50
2022-12-08T11:11:06.236Z,6.43
2022-12-08T11:14:09.174Z,5.53
2022-12-08T11:17:15.093Z,5.90
2022-12-08T11:20:23.184Z,6.45
2022-12-08T11:23:29.450Z,5.78
2022-12-08T11:26:33.244Z,5.83
2022-12-08T11:29:35.997Z,5.97
2022-12-08T11:32:41.592Z,4.57
2022-12-08T11:35:46.670Z,4.35
2022-12-08T11:38:51.406Z,3.83
2022-12-08T11:41:54.369Z,4.22
2022-12-08T11:45:22.922Z,3.88
2022-12-08T11:48:48.576Z,3.78
2022-12-08T11:51:57.921Z,5.05
2022-12-08T11:55:14.577Z,4.50
2022-12-08T11:58:27.494Z,3.45
2022-12-08T12:01:29.740Z,4.88
2022-12-08T12:06:05.293Z,5.68
2022-12-08T12:09:30.346Z,4.25
2022-12-08T12:12:39.956Z,4.68
2022-12-08T12:16:04.005Z,4.57
2022-12-08T12:19:12.629Z,3.70
2022-12-08T12:22:21.317Z,4.50
2022-12-08T12:25:26.361Z,3.28
2022-12-08T12:28:31.863Z,4.50
2022-12-08T12:31:37.671Z,3.33
2022-12-08T12:34:52.488Z,3.53
2022-12-08T12:37:59.810Z,4.28
2022-12-08T12:44:13.931Z,3.80
2022-12-08T12:47:44.764Z,3.97
2022-12-08T12:50:49.849Z,3.83
2022-12-08T12:53:52.628Z,3.67
2022-12-08T12:57:13.942Z,3.83
2022-12-08T13:00:34.753Z,4.03
2022-12-08T13:03:42.999Z,3.80
2022-12-08T13:06:48.813Z,4.35
2022-12-08T13:09:58.259Z,3.15
2022-12-08T13:13:13.097Z,3.47
2022-12-08T13:16:20.280Z,3.53
2022-12-08T13:19:22.738Z,3.33
2022-12-08T13:22:46.650Z,3.30
2022-12-08T13:25:51.660Z,3.80
2022-12-08T13:29:01.301Z,3.67
2022-12-08T13:32:05.663Z,2.65
2022-12-08T13:35:12.063Z,3.50
2022-12-08T13:38:18.435Z,3.90
2022-12-08T13:41:23.783Z,3.50
2022-12-08T13:54:35.401Z,3.75
2022-12-08T13:59:30.954Z,4.78
2022-12-08T14:02:47.841Z,5.10
2022-12-08T14:06:20.024Z,5.43
2022-12-08T14:09:19.096Z,4.10
2022-12-08T14:12:27.409Z,6.03
2022-12-08T14:15:37.618Z,4.93
2022-12-08T14:18:40.510Z,3.67
2022-12-08T14:21:56.906Z,5.88
2022-12-08T14:24:59.257Z,5.70
2022-12-08T14:28:04.642Z,4.20
2022-12-08T14:31:07.506Z,4.40
2022-12-08T14:34:11.625Z,4.20
2022-12-08T14:37:15.507Z,2.90
2022-12-08T14:40:25.219Z,3.28
2022-12-08T14:43:31.722Z,2.45
2022-12-08T14:46:33.929Z,4.25
2022-12-08T14:49:38.780Z,3.70
2022-12-08T14:52:43.956Z,4.18
2022-12-08T14:55:48.463Z,3.95
2022-12-08T14:59:03.531Z,3.63
2022-12-08T15:02:24.574Z,2.78
2022-12-08T15:05:29.979Z,3.92
2022-12-08T15:08:33.433Z,2.85
2022-12-08T15:11:35.956Z,3.80
2022-12-08T15:14:41.514Z,3.05
2022-12-08T15:17:48.777Z,3.85
2022-12-08T15:23:55.698Z,2.53
2022-12-08T15:26:59.304Z,2.45
2022-12-08T15:30:04.836Z,4.05
2022-12-08T15:33:07.746Z,2.33
2022-12-08T15:36:10.509Z,3.58
2022-12-08T15:39:36.737Z,3.30
2022-12-08T15:42:38.689Z,2.53
2022-12-08T15:45:48.103Z,2.55
2022-12-08T15:49:00.052Z,2.47
2022-12-08T15:52:11.098Z,3.70
2022-12-08T15:55:20.022Z,3.97
2022-12-08T15:58:52.852Z,2.55
2022-12-08T16:01:46.876Z,1.98
2022-12-08T16:08:44.619Z,1.77
2022-12-08T16:12:11.323Z,1.95
2022-12-08T16:18:38.487Z,1.17
2022-12-08T16:22:17.719Z,1.67
2022-12-08T16:25:17.637Z,2.22
2022-12-08T16:28:53.009Z,1.13
2022-12-08T16:31:43.796Z,1.33
2022-12-08T16:34:46.620Z,0.95
2022-12-08T16:37:49.037Z,1.25
2022-12-08T16:41:10.274Z,1.38
2022-12-08T16:44:13.428Z,0.93
2022-12-08T16:47:15.440Z,0.73
2022-12-08T16:50:23.921Z,0.73
2022-12-08T16:53:26.352Z,1.40
2022-12-08T16:56:33.205Z,1.92
2022-12-08T16:59:38.360Z,1.23
2022-12-08T17:02:40.695Z,1.33
2022-12-08T17:05:44.111Z,2.00
2022-12-08T17:08:46.153Z,1.45
2022-12-08T17:11:48.877Z,1.13
2022-12-08T17:14:51.237Z,1.40
2022-12-08T17:17:54.457Z,1.48
2022-12-08T17:20:57.232Z,1.30
2022-12-08T17:23:59.358Z,1.70
2022-12-08T17:27:05.310Z,1.40
2022-12-08T17:30:09.856Z,1.38
2022-12-08T17:33:12.061Z,1.10
2022-12-08T17:36:16.557Z,0.85
2022-12-08T17:39:19.359Z,0.93
2022-12-08T17:42:26.270Z,1.63
2022-12-08T17:45:28.373Z,1.02
2022-12-08T17:48:30.883Z,1.08
2022-12-08T17:51:32.950Z,1.05
2022-12-08T17:54:36.765Z,1.65
2022-12-08T17:57:39.261Z,1.42
2022-12-08T18:00:41.421Z,1.52
2022-12-08T18:03:43.564Z,1.33
2022-12-08T18:06:46.010Z,1.83
2022-12-08T18:09:48.253Z,1.70
2022-12-08T18:12:51.547Z,1.38
2022-12-08T18:15:53.941Z,1.75
2022-12-08T18:18:56.227Z,2.15
2022-12-08T18:22:01.347Z,2.60
2022-12-08T18:25:04.228Z,3.08
2022-12-08T18:28:07.526Z,4.05
2022-12-08T18:31:11.959Z,5.13
2022-12-08T18:34:14.719Z,4.15
2022-12-08T18:37:17.342Z,3.72
2022-12-08T18:40:19.723Z,4.72
2022-12-08T18:43:22.132Z,5.13
2022-12-08T18:46:25.297Z,4.00
2022-12-08T18:49:27.770Z,3.67
2022-12-08T18:52:32.370Z,5.20
2022-12-08T18:55:35.321Z,4.57
2022-12-08T18:58:38.523Z,5.63
2022-12-08T19:01:41.955Z,3.97
2022-12-08T19:04:45.071Z,4.95
2022-12-08T19:07:49.889Z,6.32
2022-12-08T19:10:53.437Z,5.07
2022-12-08T19:13:58.013Z,5.15
2022-12-08T19:17:01.848Z,4.53
2022-12-08T19:20:07.970Z,4.35
2022-12-08T19:23:21.626Z,3.22
2022-12-08T19:26:24.142Z,4.07
2022-12-08T19:29:29.788Z,6.15
2022-12-08T19:32:32.729Z,6.78
2022-12-08T19:35:38.197Z,8.43
2022-12-08T19:38:59.635Z,9.00
2022-12-08T19:42:20.341Z,10.70
2022-12-08T19:45:25.955Z,7.03
2022-12-08T19:48:29.971Z,5.03
2022-12-08T19:51:32.731Z,4.05
2022-12-08T19:54:35.209Z,5.07
2022-12-08T19:57:38.191Z,5.50
2022-12-08T20:00:40.902Z,5.90
2022-12-08T20:03:42.934Z,6.07
2022-12-08T20:06:46.933Z,10.38
2022-12-08T20:09:49.723Z,10.80
2022-12-08T20:12:52.397Z,6.05
2022-12-08T20:15:55.550Z,11.75
2022-12-08T20:18:58.003Z,2.47
2022-12-08T20:22:00.216Z,0.90
2022-12-08T20:25:02.946Z,3.38
2022-12-08T20:28:05.524Z,5.15
2022-12-08T20:31:07.820Z,3.88
2022-12-08T20:34:18.036Z,4.63
2022-12-08T20:37:20.265Z,3.58
2022-12-08T20:40:25.372Z,1.30
2022-12-08T20:43:27.587Z,0.85
2022-12-08T20:46:29.956Z,1.48
2022-12-08T20:49:34.768Z,1.35
2022-12-08T20:52:40.927Z,1.27
2022-12-08T20:55:43.434Z,0.85
2022-12-08T20:58:46.742Z,1.20
2022-12-08T21:01:49.420Z,1.00
2022-12-08T21:04:52.014Z,1.20
2022-12-08T21:07:54.495Z,0.80
2022-12-08T21:10:57.691Z,1.20
2022-12-08T21:14:00.049Z,1.42
2022-12-08T21:17:02.325Z,2.03
2022-12-08T21:20:05.697Z,1.52
2022-12-08T21:23:08.044Z,1.38
2022-12-08T21:26:20.808Z,1.75
2022-12-08T21:29:23.415Z,1.90
2022-12-08T21:32:30.143Z,1.45
2022-12-08T21:38:37.516Z,1.60
2022-12-08T21:41:58.705Z,2.97
2022-12-08T21:45:01.313Z,1.92
2022-12-08T21:48:11.057Z,1.75
2022-12-08T21:51:13.654Z,1.30
2022-12-08T21:54:19.056Z,1.08
2022-12-08T21:57:21.641Z,1.52
2022-12-08T22:00:24.246Z,0.90
2022-12-08T22:03:28.537Z,1.45
2022-12-08T22:06:31.292Z,2.03
2022-12-08T22:09:33.412Z,2.95
2022-12-08T22:12:37.172Z,6.53
2022-12-08T22:15:39.613Z,6.57
2022-12-08T22:18:42.617Z,4.70
2022-12-08T22:21:45.073Z,4.57
2022-12-08T22:24:47.212Z,4.15
2022-12-08T22:27:49.740Z,3.60
2022-12-08T22:30:51.885Z,3.38
2022-12-08T22:33:54.178Z,3.35
2022-12-08T22:36:56.661Z,2.58
2022-12-08T22:39:59.183Z,1.65
2022-12-08T22:43:01.705Z,2.22
2022-12-08T22:46:12.821Z,2.72
2022-12-08T22:49:15.093Z,2.55
2022-12-08T22:52:17.168Z,1.67
2022-12-08T22:55:19.185Z,1.65
2022-12-08T22:58:21.386Z,3.15
2022-12-08T23:01:31.461Z,4.05
2022-12-08T23:04:33.794Z,4.43
2022-12-08T23:07:36.018Z,4.43
2022-12-08T23:10:40.017Z,5.70
2022-12-08T23:13:48.530Z,6.00
2022-12-08T23:16:51.088Z,4.82
2022-12-08T23:19:53.747Z,5.60
2022-12-08T23:22:55.886Z,4.95
2022-12-08T23:25:58.345Z,3.03
2022-12-08T23:29:00.839Z,3.10
2022-12-08T23:32:03.120Z,3.03
2022-12-08T23:35:06.053Z,4.55
2022-12-08T23:38:10.345Z,3.75
2022-12-08T23:41:14.760Z,3.63
2022-12-08T23:44:17.275Z,3.13
2022-12-08T23:47:22.576Z,2.03
2022-12-08T23:50:24.910Z,2.90
2022-12-08T23:53:28.502Z,2.25
2022-12-08T23:56:30.953Z,2.72
2022-12-08T23:59:33.718Z,2.13
